Time;durP1;ratioP1;P1;durP2;ratioP2;P2;SDS_P1;SDS_P2;PMS_P1;PMS_P2;Temp;Humidity;BMP_temperature;BMP_pressure;BME280_temperature;BME280_humidity;BME280_pressure;Samples;Min_cycle;Max_cycle;Signal;HPM_P1;HPM_P2
2023/10/14 00:01:35;;;;;;;4.53;3.17;;;20.50;99.90;;;-141.84;44.72;21484.78;5002041;28;20245;-66
2023/10/14 00:04:07;;;;;;;7.47;3.40;;;20.50;99.90;;;-141.84;44.38;21533.59;5001331;28;20236;-68
2023/10/14 00:06:38;;;;;;;6.22;3.00;;;20.70;99.90;;;-141.84;44.27;21551.91;4998797;28;20218;-68
2023/10/14 00:09:11;;;;;;;7.85;3.17;;;20.80;99.90;;;-141.84;44.52;21545.78;4993475;28;20218;-67
2023/10/14 00:11:43;;;;;;;9.73;3.80;;;20.80;99.90;;;-141.84;44.45;21486.81;5021401;28;20640;-67
2023/10/14 00:14:16;;;;;;;7.20;3.58;;;20.80;99.90;;;-141.84;45.35;21466.50;5001293;28;20226;-68
2023/10/14 00:16:49;;;;;;;5.68;3.60;;;20.70;99.90;;;-141.84;44.89;21484.78;4999623;28;20230;-69
2023/10/14 00:19:19;;;;;;;9.18;3.50;;;20.70;99.90;;;-141.84;44.43;21492.94;4993865;28;20598;-68
2023/10/14 00:21:49;;;;;;;9.30;3.53;;;20.70;99.90;;;-141.84;44.73;21497.00;5002570;28;20629;-67
2023/10/14 00:24:26;;;;;;;7.18;3.40;;;20.70;99.90;;;-141.84;44.74;21488.88;5001966;28;20301;-70
2023/10/14 00:26:57;;;;;;;6.07;3.13;;;20.60;99.90;;;-141.84;45.09;21474.63;5001755;28;20221;-67
2023/10/14 00:29:29;;;;;;;4.78;3.53;;;20.60;99.90;;;-141.84;45.67;21501.06;4995218;28;20211;-68
2023/10/14 00:31:58;;;;;;;7.63;3.40;;;20.60;99.90;;;-141.84;45.86;21442.09;5001609;28;20537;-68
2023/10/14 00:34:29;;;;;;;6.90;3.47;;;20.50;99.90;;;-141.84;45.94;21415.66;5001012;28;20223;-68
2023/10/14 00:36:58;;;;;;;9.25;3.70;;;20.40;99.90;;;-141.84;46.32;21403.47;5001709;28;20713;-67
2023/10/14 00:39:27;;;;;;;19.55;3.38;;;20.30;99.90;;;-141.84;47.34;21364.84;4995271;28;20242;-68
2023/10/14 00:41:58;;;;;;;5.38;3.15;;;20.20;99.90;;;-141.84;47.99;21364.84;5001304;28;20290;-67
2023/10/14 00:44:28;;;;;;;5.93;3.45;;;20.10;99.90;;;-141.84;47.91;21338.41;4999952;28;20221;-70
2023/10/14 00:46:57;;;;;;;7.90;3.53;;;20.00;99.90;;;-141.84;47.27;21397.38;5003156;28;20231;-69
2023/10/14 00:49:31;;;;;;;4.80;3.63;;;20.00;99.90;;;-141.84;47.62;21366.88;4997471;28;20300;-66
2023/10/14 00:52:06;;;;;;;5.85;3.00;;;20.00;99.90;;;-141.84;47.37;21360.78;5002322;28;20237;-67
2023/10/14 00:54:57;;;;;;;5.00;2.90;;;20.00;99.90;;;-141.84;48.21;21379.06;5005141;28;20273;-67
2023/10/14 00:57:37;;;;;;;6.97;3.15;;;19.90;99.90;;;-141.84;48.64;21360.78;4996117;28;20262;-67
2023/10/14 01:00:10;;;;;;;5.38;3.40;;;20.00;99.90;;;-141.84;48.21;21391.28;5005127;28;20690;-68
2023/10/14 01:02:38;;;;;;;4.70;3.17;;;20.00;99.90;;;-141.84;47.72;21440.06;5004789;28;20604;-69
2023/10/14 01:05:13;;;;;;;6.95;3.83;;;20.10;99.90;;;-141.84;47.41;21415.66;5013072;28;20234;-67
2023/10/14 01:07:41;;;;;;;5.95;3.72;;;20.20;99.90;;;-141.84;48.10;21385.16;5022337;28;20663;-67
2023/10/14 01:10:12;;;;;;;6.88;3.90;;;20.20;99.90;;;-141.84;49.41;21350.59;5013645;28;20657;-68
2023/10/14 01:12:44;;;;;;;7.53;3.75;;;20.10;99.90;;;-141.84;50.75;21346.53;5004257;28;20331;-68
2023/10/14 01:15:20;;;;;;;5.97;3.33;;;20.10;99.90;;;-141.84;53.36;21289.59;4996669;28;20226;-67
2023/10/14 01:17:52;;;;;;;6.00;3.30;;;19.90;99.90;;;-141.84;54.36;21257.09;5003469;28;20207;-67
2023/10/14 01:20:37;;;;;;;6.00;3.55;;;19.80;99.90;;;-141.84;55.02;21194.06;5004761;28;20305;-67
2023/10/14 01:23:14;;;;;;;6.82;3.53;;;19.60;99.90;;;-141.84;54.93;21202.19;4995588;28;20222;-67
2023/10/14 01:25:47;;;;;;;7.40;3.83;;;19.50;99.90;;;-141.84;54.95;21183.88;5004986;28;20701;-68
2023/10/14 01:28:21;;;;;;;7.03;3.33;;;19.40;99.90;;;-141.84;55.57;21151.34;5004912;28;20235;-67
2023/10/14 01:31:30;;;;;;;9.98;3.72;;;19.20;99.90;;;-141.84;55.44;21124.94;5005147;28;20276;-68
2023/10/14 01:34:01;;;;;;;6.63;3.55;;;19.10;99.90;;;-141.84;55.57;21124.94;5004628;28;20223;-68
2023/10/14 01:36:37;;;;;;;5.13;3.10;;;19.00;99.90;;;-141.84;53.50;21169.66;5004425;28;20229;-67
2023/10/14 01:39:11;;;;;;;5.95;3.35;;;19.00;99.90;;;-141.84;54.34;21163.56;4995371;28;20198;-67
2023/10/14 01:41:39;;;;;;;3.60;3.10;;;19.00;99.90;;;-141.84;53.25;21210.31;5005401;28;20202;-68
2023/10/14 01:44:09;;;;;;;6.00;3.33;;;19.10;99.90;;;-141.84;53.21;21196.09;5004646;28;20253;-68
2023/10/14 01:46:40;;;;;;;5.72;3.67;;;19.20;99.90;;;-141.84;53.08;21206.25;5004640;28;20226;-68
2023/10/14 01:49:16;;;;;;;5.18;3.38;;;19.20;99.90;;;-141.84;53.60;21192.03;4996840;28;20230;-67
2023/10/14 01:51:48;;;;;;;5.97;3.40;;;19.30;99.90;;;-141.84;53.08;21161.53;5002294;28;20318;-67
2023/10/14 01:54:18;;;;;;;4.63;3.40;;;19.30;99.90;;;-141.84;53.17;21232.69;5004571;28;20230;-68
2023/10/14 01:56:47;;;;;;;8.02;3.45;;;19.40;99.90;;;-141.84;52.66;21238.78;5004657;28;20195;-70
2023/10/14 01:59:16;;;;;;;4.70;3.50;;;19.40;99.90;;;-141.84;52.61;21212.34;4996508;28;20266;-70
2023/10/14 02:01:44;;;;;;;6.10;3.35;;;19.40;99.90;;;-141.84;52.33;21257.09;5016640;28;20217;-69
2023/10/14 02:04:15;;;;;;;12.65;4.00;;;19.40;99.90;;;-141.84;51.75;21248.94;5019384;28;20234;-70
2023/10/14 02:06:47;;;;;;;6.45;3.20;;;19.50;99.90;;;-141.84;52.07;21208.28;5015162;28;20284;-69
2023/10/14 02:09:17;;;;;;;7.72;3.25;;;19.50;99.90;;;-141.84;52.45;21202.19;5003617;28;20260;-69
2023/10/14 02:11:47;;;;;;;7.05;3.83;;;19.40;99.90;;;-141.84;52.32;21230.66;5004329;28;20199;-68
2023/10/14 02:14:22;;;;;;;7.57;3.75;;;19.40;99.90;;;-141.84;52.14;21255.03;5003022;28;20615;-67
2023/10/14 02:16:51;;;;;;;8.02;3.60;;;19.40;99.90;;;-141.84;52.25;21257.09;5003238;28;20642;-68
2023/10/14 02:19:21;;;;;;;5.60;3.40;;;19.50;99.90;;;-141.84;52.09;21228.63;4994732;28;20250;-68
2023/10/14 02:21:57;;;;;;;6.70;3.83;;;19.50;99.90;;;-141.84;52.86;21210.31;5011713;28;20218;-66
2023/10/14 02:24:27;;;;;;;7.53;3.55;;;19.40;99.90;;;-141.84;51.81;21244.88;5011483;28;20226;-66
2023/10/14 02:27:06;;;;;;;5.75;3.75;;;19.60;99.90;;;-141.84;51.75;21285.53;5003671;28;20243;-67
2023/10/14 02:29:34;;;;;;;7.10;3.80;;;19.50;99.90;;;-141.84;51.94;21267.25;5004705;28;20713;-67
2023/10/14 02:32:03;;;;;;;5.05;3.80;;;19.60;99.90;;;-141.84;52.06;21214.38;5001386;28;20994;-68
2023/10/14 02:34:31;;;;;;;10.88;4.30;;;19.60;99.90;;;-141.84;51.56;21253.00;5003286;28;20235;-68
2023/10/14 02:37:01;;;;;;;7.28;4.00;;;19.60;99.90;;;-141.84;50.99;21330.28;5003495;28;20305;-67
2023/10/14 02:39:30;;;;;;;5.50;4.00;;;19.70;99.90;;;-141.84;51.31;21297.75;4998968;28;20322;-65
2023/10/14 02:42:06;;;;;;;6.40;3.95;;;19.80;99.90;;;-141.84;52.42;21269.28;5000744;28;20249;-67
2023/10/14 02:44:46;;;;;;;7.63;4.25;;;19.80;99.90;;;-141.84;51.89;21257.09;5004045;28;20202;-67
2023/10/14 02:47:17;;;;;;;7.10;4.13;;;19.70;99.90;;;-141.84;51.88;21285.53;4994660;28;20214;-68
2023/10/14 02:49:47;;;;;;;7.50;3.95;;;19.80;99.90;;;-141.84;51.93;21283.50;5001306;28;20235;-67
2023/10/14 02:52:28;;;;;;;6.78;3.90;;;19.80;99.90;;;-141.84;53.03;21226.59;5003197;28;20263;-68
2023/10/14 02:55:19;;;;;;;10.68;3.80;;;19.70;99.90;;;-141.84;52.50;21269.28;5003698;28;20222;-68
2023/10/14 02:57:48;;;;;;;6.05;3.88;;;19.70;99.90;;;-141.84;53.04;21295.72;5003249;28;20222;-68
2023/10/14 03:00:29;;;;;;;7.28;3.85;;;19.70;99.90;;;-141.84;52.67;21277.41;5003805;28;20322;-68
2023/10/14 03:03:02;;;;;;;7.78;4.38;;;19.60;99.90;;;-141.84;53.39;21238.78;5002287;28;20245;-65
2023/10/14 03:05:37;;;;;;;7.70;4.10;;;19.60;99.90;;;-141.84;52.75;21285.53;5000971;28;20694;-67
2023/10/14 03:08:10;;;;;;;7.95;4.28;;;19.60;99.90;;;-141.84;52.94;21273.34;5000785;28;20229;-67
2023/10/14 03:10:42;;;;;;;9.35;3.97;;;19.70;99.90;;;-141.84;52.84;21291.66;5002317;28;20269;-67
2023/10/14 03:13:12;;;;;;;6.18;4.10;;;19.70;99.90;;;-141.84;53.34;21224.56;4995221;28;20222;-67
2023/10/14 03:15:44;;;;;;;7.75;4.40;;;19.70;99.90;;;-141.84;53.32;21261.16;5003618;28;20258;-66
2023/10/14 03:18:16;;;;;;;4.65;3.95;;;19.60;99.90;;;-141.84;53.70;21261.16;5002824;28;20234;-67
2023/10/14 03:20:58;;;;;;;8.07;4.80;;;19.60;99.90;;;-141.84;53.45;21250.97;4995488;28;20200;-67
2023/10/14 03:23:28;;;;;;;8.50;4.18;;;19.60;99.90;;;-141.84;52.88;21279.44;4995225;28;20642;-68
2023/10/14 03:26:11;;;;;;;10.52;4.68;;;19.80;99.90;;;-141.84;53.15;21309.94;5019739;28;20244;-67
2023/10/14 03:28:44;;;;;;;6.55;4.35;;;19.80;99.90;;;-141.84;53.55;21297.75;5021764;28;20230;-66
2023/10/14 03:31:16;;;;;;;14.38;4.68;;;19.80;99.90;;;-141.84;52.71;21279.44;5014974;28;20232;-68
2023/10/14 03:33:45;;;;;;;9.52;4.53;;;19.80;99.90;;;-141.84;52.54;21314.00;5022340;28;20705;-67
2023/10/14 03:36:16;;;;;;;5.82;4.53;;;19.90;99.90;;;-141.84;52.99;21291.66;5021996;28;20822;-68
2023/10/14 03:38:53;;;;;;;9.80;4.47;;;19.90;99.90;;;-141.84;52.78;21301.81;5019430;28;20236;-69
2023/10/14 03:41:29;;;;;;;7.93;4.53;;;20.00;99.90;;;-141.84;52.17;21332.31;5012532;28;21291;-67
2023/10/14 03:44:00;;;;;;;7.13;4.35;;;20.00;99.90;;;-141.84;52.30;21330.28;5022314;28;20222;-66
2023/10/14 03:46:32;;;;;;;7.30;4.40;;;20.00;99.90;;;-141.84;51.83;21375.00;5022248;28;20312;-67
2023/10/14 03:49:11;;;;;;;6.45;4.38;;;20.10;99.90;;;-141.84;52.24;21318.06;5019089;28;20250;-65
2023/10/14 03:51:41;;;;;;;7.95;4.32;;;20.00;99.90;;;-141.84;52.53;21318.06;5022167;28;20217;-68
2023/10/14 03:54:09;;;;;;;7.47;4.05;;;20.00;99.90;;;-141.84;51.97;21336.38;5022264;28;20221;-67
2023/10/14 03:56:45;;;;;;;7.80;4.45;;;19.80;99.90;;;-141.84;53.26;21293.69;5022602;28;20209;-68
2023/10/14 03:59:22;;;;;;;6.85;4.25;;;19.90;99.90;;;-141.84;53.29;21238.78;5014603;28;20590;-68
2023/10/14 04:01:57;;;;;;;11.73;4.40;;;19.80;99.90;;;-141.84;53.06;21242.84;5021282;28;20679;-67
2023/10/14 04:04:29;;;;;;;10.20;4.07;;;19.80;99.90;;;-141.84;52.34;21263.19;5016294;28;20221;-67
2023/10/14 04:07:15;;;;;;;5.88;4.38;;;19.70;99.90;;;-141.84;52.70;21322.13;5021962;28;20237;-67
2023/10/14 04:09:51;;;;;;;4.55;3.67;;;19.80;99.90;;;-141.84;53.11;21250.97;5019469;28;20316;-67
2023/10/14 04:12:29;;;;;;;7.65;4.18;;;19.70;99.90;;;-141.84;53.18;21228.63;5021417;28;20513;-68
2023/10/14 04:15:15;;;;;;;7.68;4.05;;;19.60;99.90;;;-141.84;53.51;21240.81;5021871;28;20221;-66
2023/10/14 04:17:48;;;;;;;6.82;4.13;;;19.70;99.90;;;-141.84;53.34;21236.75;5019547;28;20206;-66
2023/10/14 04:20:29;;;;;;;7.53;4.10;;;19.60;99.90;;;-141.84;52.47;21265.22;5020017;28;20229;-68
2023/10/14 04:22:58;;;;;;;7.97;4.70;;;19.70;99.90;;;-141.84;52.11;21354.66;5025292;28;20670;-67
2023/10/14 04:25:42;;;;;;;6.53;3.75;;;19.80;99.90;;;-141.84;52.30;21297.75;5025983;28;20283;-67
2023/10/14 04:28:30;;;;;;;8.90;4.32;;;19.90;99.90;;;-141.84;52.18;21318.06;5023845;28;20236;-67
2023/10/14 04:31:06;;;;;;;9.48;4.13;;;19.90;99.90;;;-141.84;52.16;21326.22;5025139;28;20225;-66
2023/10/14 04:33:44;;;;;;;6.88;3.90;;;19.80;99.90;;;-141.84;52.16;21326.22;5025727;28;20226;-69
2023/10/14 04:39:12;;;;;;;9.65;4.07;;;19.90;99.90;;;-141.84;52.07;21334.34;5024721;28;20237;-67
2023/10/14 04:41:55;;;;;;;6.90;3.90;;;20.00;99.90;;;-141.84;51.99;21387.19;5026156;28;20288;-68
2023/10/14 04:44:37;;;;;;;4.75;4.13;;;20.00;99.90;;;-141.84;52.33;21346.53;5023194;28;20224;-68
2023/10/14 04:47:08;;;;;;;7.00;4.03;;;20.00;99.90;;;-141.84;52.48;21318.06;5018706;28;20237;-62
2023/10/14 04:49:37;;;;;;;9.85;4.40;;;19.90;99.90;;;-141.84;52.52;21324.19;5025249;28;20248;-68
2023/10/14 04:52:08;;;;;;;7.13;4.22;;;19.90;99.90;;;-141.84;53.12;21340.44;5025720;28;20230;-67
2023/10/14 04:54:51;;;;;;;7.90;4.32;;;19.90;99.90;;;-141.84;52.68;21299.78;5025685;28;20307;-67
2023/10/14 04:57:23;;;;;;;5.93;4.03;;;19.80;99.90;;;-141.84;53.98;21246.91;5016948;28;20789;-67
2023/10/14 04:59:55;;;;;;;5.75;4.25;;;19.70;99.90;;;-141.84;53.76;21330.28;5025980;28;20288;-67
2023/10/14 05:02:30;;;;;;;8.85;4.25;;;19.80;99.90;;;-141.84;54.24;21224.56;5021174;28;20224;-68
2023/10/14 05:05:00;;;;;;;6.97;3.95;;;19.70;99.90;;;-141.84;53.84;21314.00;5022165;28;20316;-67
2023/10/14 05:07:29;;;;;;;6.55;4.28;;;19.70;99.90;;;-141.84;53.41;21265.22;5021817;28;20226;-68
2023/10/14 05:09:58;;;;;;;7.55;4.40;;;19.80;99.90;;;-141.84;54.31;21236.75;5025858;28;20265;-67
2023/10/14 05:12:27;;;;;;;7.93;4.25;;;19.70;99.90;;;-141.84;55.04;21232.69;5025165;28;20483;-67
2023/10/14 05:14:56;;;;;;;6.35;4.28;;;19.60;99.90;;;-141.84;55.13;21212.34;5025345;28;20273;-67
2023/10/14 05:17:32;;;;;;;9.27;4.82;;;19.50;99.90;;;-141.84;54.93;21261.16;5015778;28;20202;-66
2023/10/14 05:20:15;;;;;;;7.40;4.40;;;19.50;99.90;;;-141.84;54.16;21232.69;5022485;28;20225;-67
2023/10/14 05:22:47;;;;;;;7.63;4.45;;;19.60;99.90;;;-141.84;54.03;21269.28;5022667;28;20221;-67
2023/10/14 05:25:23;;;;;;;8.32;4.43;;;19.60;99.90;;;-141.84;53.44;21283.50;5018288;28;20222;-67
2023/10/14 05:27:58;;;;;;;10.73;4.80;;;19.70;99.90;;;-141.84;53.56;21289.59;5023837;28;20264;-66
2023/10/14 05:30:33;;;;;;;6.25;4.82;;;19.80;99.90;;;-141.84;56.49;21273.34;5022742;28;20225;-66
2023/10/14 05:33:07;;;;;;;8.93;4.80;;;19.90;99.90;;;-141.84;57.13;21224.56;5022518;28;20228;-68
2023/10/14 05:35:41;;;;;;;5.78;3.72;;;19.80;99.90;;;-141.84;58.51;21214.38;5025346;28;20312;-67
2023/10/14 05:38:14;;;;;;;3.47;2.20;;;19.70;99.90;;;-141.84;63.96;21045.63;5023166;28;20476;-67
2023/10/14 05:40:42;;;;;;;5.18;2.67;;;19.30;99.90;;;-141.84;69.95;20891.13;5023665;28;20230;-66
2023/10/14 05:43:11;;;;;;;4.07;2.00;;;18.70;99.90;;;-141.84;71.58;20830.16;5016612;28;20321;-65
2023/10/14 05:45:39;;;;;;;6.07;1.73;;;18.10;99.90;;;-141.84;74.29;20744.78;5024203;28;20707;-67
2023/10/14 05:48:10;;;;;;;3.35;1.73;;;17.70;99.90;;;-141.84;76.51;20681.75;5024653;28;20216;-66
2023/10/14 05:50:40;;;;;;;2.05;1.60;;;17.30;99.90;;;-141.84;76.26;20683.78;5024930;28;20202;-66
2023/10/14 05:53:08;;;;;;;2.28;1.40;;;17.10;99.90;;;-141.84;76.55;20673.63;5017253;28;20218;-66
2023/10/14 05:55:39;;;;;;;1.75;1.48;;;17.00;99.90;;;-141.84;77.16;20574.00;5024164;28;20265;-66
2023/10/14 05:58:08;;;;;;;1.70;1.50;;;16.80;99.90;;;-141.84;77.83;20565.88;5022457;28;20230;-67
2023/10/14 06:00:40;;;;;;;1.33;1.10;;;16.70;99.90;;;-141.84;77.95;20559.78;5024155;28;20221;-66
2023/10/14 06:03:12;;;;;;;2.85;1.10;;;16.60;99.90;;;-141.84;76.54;20590.28;5014381;28;20308;-67
2023/10/14 06:05:41;;;;;;;0.98;0.90;;;16.60;99.90;;;-141.84;75.66;20576.03;5024440;28;20228;-68
2023/10/14 06:08:16;;;;;;;2.72;1.23;;;16.60;99.90;;;-141.84;76.17;20565.88;5024400;28;20222;-67
2023/10/14 06:10:46;;;;;;;1.60;0.93;;;16.60;99.90;;;-141.84;76.28;20584.19;5021318;28;20552;-66
2023/10/14 06:13:15;;;;;;;1.98;1.10;;;16.60;99.90;;;-141.84;78.62;20565.88;5016060;28;20230;-65
2023/10/14 06:15:45;;;;;;;1.67;1.20;;;16.60;99.90;;;-141.84;79.27;20569.94;5023716;28;20775;-65
2023/10/14 06:18:15;;;;;;;2.55;1.40;;;16.50;99.90;;;-141.84;80.76;20515.06;5024133;28;20233;-66
2023/10/14 06:20:45;;;;;;;1.52;1.20;;;16.50;99.90;;;-141.84;83.17;20511.00;5021558;28;20285;-67
2023/10/14 06:23:13;;;;;;;3.38;1.63;;;16.40;99.90;;;-141.84;84.94;20443.91;5016822;28;20329;-68
2023/10/14 06:25:43;;;;;;;3.10;1.38;;;16.30;99.90;;;-141.84;85.67;20370.75;5023998;28;20226;-67
2023/10/14 06:28:11;;;;;;;1.45;0.90;;;16.00;99.90;;;-141.84;84.85;20307.72;5023304;28;20230;-69
2023/10/14 06:30:39;;;;;;;2.28;1.05;;;15.60;99.90;;;-141.84;84.82;20254.88;5023787;28;20705;-69
2023/10/14 06:33:08;;;;;;;2.58;0.75;;;15.20;99.90;;;-141.84;85.20;20214.22;5015067;28;20210;-68
2023/10/14 06:35:42;;;;;;;1.25;0.70;;;15.00;99.90;;;-141.84;86.21;20161.38;5022525;28;20239;-69
2023/10/14 06:38:11;;;;;;;2.10;0.80;;;14.70;99.90;;;-141.84;87.21;20128.88;5022267;28;20229;-68
2023/10/14 06:40:42;;;;;;;1.33;0.80;;;14.50;99.90;;;-141.84;88.52;20189.84;5018485;28;20221;-68
2023/10/14 06:43:12;;;;;;;1.98;0.85;;;14.40;99.90;;;-141.84;88.52;20175.63;5016524;28;20258;-68
2023/10/14 06:45:41;;;;;;;2.30;0.70;;;14.30;99.90;;;-141.84;89.54;20224.41;5023202;28;20229;-69
2023/10/14 06:48:10;;;;;;;0.80;0.50;;;14.20;99.90;;;-141.84;88.73;20165.44;5023456;28;20202;-67
2023/10/14 06:50:42;;;;;;;2.35;0.70;;;14.20;99.90;;;-141.84;88.63;20157.31;5023572;28;20313;-68
2023/10/14 06:53:11;;;;;;;2.25;0.90;;;14.10;99.90;;;-141.84;89.08;20159.34;5015512;28;20326;-69
2023/10/14 06:55:40;;;;;;;0.93;0.60;;;14.00;99.90;;;-141.84;89.45;20155.28;5023365;28;20222;-68
2023/10/14 06:58:11;;;;;;;1.27;0.70;;;13.90;99.90;;;-141.84;90.20;20246.75;5023162;28;20284;-68
2023/10/14 07:00:40;;;;;;;1.70;0.60;;;13.90;99.90;;;-141.84;90.05;20273.19;5022779;28;20228;-68
2023/10/14 07:03:12;;;;;;;1.15;0.80;;;13.90;99.90;;;-141.84;90.45;20277.25;5015090;28;20321;-67
2023/10/14 07:05:48;;;;;;;1.35;0.60;;;13.90;99.90;;;-141.84;91.58;20515.06;5020019;28;20248;-68
2023/10/14 07:08:19;;;;;;;1.38;1.23;;;13.90;99.90;;;-141.84;91.35;20511.00;5023014;28;20279;-67
2023/10/14 07:10:50;;;;;;;1.13;0.85;;;14.00;99.90;;;-141.84;90.37;20299.59;5020676;28;20320;-68
2023/10/14 07:13:19;;;;;;;1.15;0.85;;;14.00;99.90;;;-141.84;90.73;20382.94;5015375;28;20988;-67
2023/10/14 07:15:48;;;;;;;1.30;0.90;;;14.00;99.90;;;-141.84;91.31;20460.19;5020789;28;20233;-68
2023/10/14 07:18:23;;;;;;;0.70;0.70;;;14.00;99.90;;;-141.84;91.21;20517.09;5021330;28;20226;-69
2023/10/14 07:21:00;;;;;;;0.98;0.60;;;14.00;99.90;;;-141.84;91.11;20407.34;5021148;28;20210;-68
2023/10/14 07:23:33;;;;;;;0.70;0.70;;;14.00;99.90;;;-141.84;89.27;20165.44;5021122;28;20287;-68
2023/10/14 07:26:09;;;;;;;2.20;0.80;;;13.90;99.90;;;-141.84;89.74;20143.09;5022621;28;20222;-68
2023/10/14 07:28:42;;;;;;;2.80;0.80;;;13.80;99.90;;;-141.84;89.81;20165.44;5022953;28;20287;-68
2023/10/14 07:31:11;;;;;;;0.80;0.80;;;13.80;99.90;;;-141.84;90.71;20297.56;5013357;28;20226;-67
2023/10/14 07:33:40;;;;;;;1.58;1.05;;;13.90;99.90;;;-141.84;91.43;20523.19;5022430;28;20303;-68
2023/10/14 07:36:12;;;;;;;1.00;0.90;;;13.90;99.90;;;-141.84;91.14;20380.91;5020898;28;20222;-67
2023/10/14 07:38:42;;;;;;;1.85;1.40;;;14.00;99.90;;;-141.84;91.14;20417.50;5022622;28;20348;-68
2023/10/14 07:41:13;;;;;;;3.15;1.70;;;13.90;99.90;;;-141.84;90.82;20307.72;5014391;28;20229;-67
2023/10/14 07:43:41;;;;;;;1.48;1.20;;;13.90;99.90;;;-141.84;91.43;20466.28;5022463;28;20236;-68
2023/10/14 07:46:09;;;;;;;2.15;1.10;;;13.90;99.90;;;-141.84;91.33;20456.13;5022544;28;20324;-67
2023/10/14 07:48:38;;;;;;;1.38;1.20;;;13.90;99.90;;;-141.84;89.81;20230.50;5020767;28;20218;-68
2023/10/14 07:51:08;;;;;;;2.53;1.00;;;13.90;99.90;;;-141.84;87.28;20017.09;5012521;28;20208;-70
2023/10/14 07:53:57;;;;;;;1.17;1.05;;;14.00;99.90;;;-141.84;85.24;20029.28;5021350;28;20198;-68
2023/10/14 07:56:25;;;;;;;1.48;1.00;;;14.00;99.90;;;-141.84;85.71;20017.09;5021215;28;20648;-68
2023/10/14 07:58:55;;;;;;;3.55;2.33;;;14.10;99.90;;;-141.84;85.64;20047.56;5023463;28;20313;-67
2023/10/14 08:01:25;;;;;;;1.88;1.20;;;14.10;99.90;;;-141.84;86.13;20010.97;5016977;28;20225;-69
2023/10/14 08:03:56;;;;;;;2.90;1.90;;;14.10;99.90;;;-141.84;85.80;20025.22;5023993;28;20321;-69
2023/10/14 08:06:27;;;;;;;2.05;1.20;;;14.20;99.90;;;-141.84;86.02;20037.41;5023004;28;20779;-69
2023/10/14 08:08:57;;;;;;;4.00;1.23;;;14.20;99.90;;;-141.84;84.19;20082.13;5023778;28;20212;-68
2023/10/14 08:11:25;;;;;;;3.50;1.60;;;14.40;99.90;;;-141.84;84.39;20031.31;5015053;28;20336;-68
2023/10/14 08:13:54;;;;;;;1.42;1.20;;;14.40;99.90;;;-141.84;83.59;20010.97;5022326;28;20233;-68
2023/10/14 08:16:22;;;;;;;3.85;1.60;;;14.40;99.90;;;-141.84;84.58;19996.75;5022559;28;20261;-69
2023/10/14 08:18:53;;;;;;;1.90;1.15;;;14.30;99.90;;;-141.84;84.89;20023.19;5022387;28;20225;-70
2023/10/14 08:21:22;;;;;;;2.45;1.15;;;14.30;99.90;;;-141.84;85.11;20000.81;5014702;28;20241;-69
2023/10/14 08:23:50;;;;;;;1.95;1.42;;;14.20;99.90;;;-141.84;85.21;20000.81;5019208;28;20294;-68
2023/10/14 08:26:20;;;;;;;3.65;1.60;;;14.20;99.90;;;-141.84;84.87;20037.41;5022630;28;20347;-67
2023/10/14 08:28:49;;;;;;;3.58;1.30;;;14.30;99.90;;;-141.84;82.92;20000.81;5022056;28;20217;-70
2023/10/14 08:31:17;;;;;;;4.22;1.40;;;14.40;99.90;;;-141.84;82.42;20039.44;5014593;28;20669;-67
2023/10/14 08:33:45;;;;;;;2.42;1.10;;;14.40;99.90;;;-141.84;82.83;20051.63;5021845;28;20214;-67
2023/10/14 08:36:14;;;;;;;3.17;1.67;;;14.60;99.90;;;-141.84;81.25;20065.84;5020052;28;20284;-69
2023/10/14 08:38:44;;;;;;;2.55;1.33;;;14.60;99.90;;;-141.84;80.12;20082.13;5022388;28;20279;-68
2023/10/14 08:41:15;;;;;;;5.15;1.42;;;14.70;99.90;;;-141.84;75.03;20076.03;5014620;28;20230;-70
2023/10/14 08:43:49;;;;;;;8.65;1.70;;;14.70;99.90;;;-141.84;73.75;20108.53;5022974;28;20630;-68
2023/10/14 08:46:23;;;;;;;3.38;1.48;;;14.50;99.90;;;-141.84;74.36;20033.34;5022629;28;20229;-68
2023/10/14 08:48:53;;;;;;;5.18;1.38;;;14.30;99.90;;;-141.84;76.15;20027.25;5020520;28;20220;-68
2023/10/14 08:51:25;;;;;;;3.88;1.20;;;14.20;99.90;;;-141.84;74.88;20021.16;5014665;28;20316;-67
2023/10/14 08:54:12;;;;;;;5.28;1.40;;;14.30;99.90;;;-141.84;75.57;20090.25;5022035;28;20198;-67
2023/10/14 08:56:44;;;;;;;5.32;1.80;;;14.40;99.90;;;-141.84;76.30;20102.44;5021820;28;20280;-68
2023/10/14 08:59:14;;;;;;;6.95;1.92;;;14.50;99.90;;;-141.84;73.15;20151.22;5014005;28;20284;-72
2023/10/14 09:01:44;;;;;;;5.40;1.55;;;14.70;99.90;;;-141.84;72.36;20139.03;5021469;28;20244;-67
2023/10/14 09:04:15;;;;;;;6.55;1.75;;;14.70;99.90;;;-141.84;70.32;20224.41;5019700;28;20237;-66
2023/10/14 09:06:43;;;;;;;3.85;1.50;;;14.80;99.90;;;-141.84;69.59;20232.53;5022369;28;20736;-67
2023/10/14 09:09:17;;;;;;;8.02;1.70;;;14.90;99.90;;;-141.84;68.91;20224.41;5017671;28;20206;-65
2023/10/14 09:11:45;;;;;;;5.25;1.55;;;14.90;99.90;;;-141.84;65.51;20246.75;5026540;28;20301;-66
2023/10/14 09:14:16;;;;;;;4.10;1.20;;;14.90;99.90;;;-141.84;67.25;20252.84;5027382;28;20238;-67
2023/10/14 09:16:49;;;;;;;3.92;1.27;;;14.90;99.90;;;-141.84;65.60;20297.56;5027478;28;20265;-67
2023/10/14 09:19:17;;;;;;;5.18;1.42;;;15.00;99.90;;;-141.84;65.38;20360.59;5020888;28;20226;-67
2023/10/14 09:21:46;;;;;;;2.38;1.13;;;15.10;99.90;;;-141.84;66.68;20419.53;5027614;28;20236;-66
2023/10/14 09:24:18;;;;;;;4.32;1.60;;;15.40;99.90;;;-141.84;64.44;20494.75;5027385;28;20318;-68
2023/10/14 09:26:47;;;;;;;3.10;1.23;;;15.60;99.90;;;-141.84;62.13;20480.50;5026654;28;20670;-66
2023/10/14 09:29:17;;;;;;;5.80;1.30;;;15.80;99.90;;;-141.84;62.41;20508.97;5020243;28;20308;-65
2023/10/14 09:31:47;;;;;;;6.18;1.45;;;15.80;99.90;;;-141.84;64.08;20476.44;5027364;28;20226;-67
2023/10/14 09:34:23;;;;;;;2.92;1.27;;;15.80;99.90;;;-141.84;61.98;20488.63;5026406;28;20316;-66
2023/10/14 09:36:53;;;;;;;3.40;1.30;;;15.90;99.90;;;-141.84;61.51;20508.97;5026761;28;20766;-67
2023/10/14 09:39:28;;;;;;;5.57;1.50;;;15.90;99.90;;;-141.84;58.11;20543.53;5019777;28;20239;-66
2023/10/14 09:42:00;;;;;;;5.15;1.35;;;16.00;99.90;;;-141.84;61.31;20533.34;5024368;28;20657;-65
2023/10/14 09:44:31;;;;;;;8.27;2.47;;;16.00;99.90;;;-141.84;63.65;20571.97;5027581;28;20198;-66
2023/10/14 09:47:02;;;;;;;4.93;1.73;;;16.10;99.90;;;-141.84;55.87;20637.03;5026693;28;20326;-67
2023/10/14 09:49:32;;;;;;;6.45;1.60;;;16.10;99.90;;;-141.84;57.19;20608.56;5023503;28;20299;-67
2023/10/14 09:52:04;;;;;;;5.22;1.70;;;16.10;99.90;;;-141.84;56.81;20557.75;5026022;28;20234;-67
2023/10/14 09:54:35;;;;;;;6.90;1.42;;;15.90;99.90;;;-141.84;58.07;20543.53;5026706;28;20230;-67
2023/10/14 09:57:03;;;;;;;8.23;1.80;;;15.70;99.90;;;-141.84;58.37;20490.66;5023588;28;20705;-65
2023/10/14 09:59:34;;;;;;;5.78;1.60;;;15.50;99.90;;;-141.84;58.24;20496.78;5027103;28;20244;-66
2023/10/14 10:02:02;;;;;;;3.72;1.67;;;15.40;99.90;;;-141.84;57.21;20456.13;5026944;28;20254;-67
2023/10/14 10:04:35;;;;;;;6.70;1.65;;;15.30;99.90;;;-141.84;57.02;20480.50;5026117;28;20234;-69
2023/10/14 10:07:27;;;;;;;2.45;1.10;;;15.30;99.90;;;-141.84;55.35;20541.50;5019837;28;20230;-65
2023/10/14 10:10:14;;;;;;;5.07;1.20;;;15.40;99.90;;;-141.84;54.15;20559.78;5026225;28;20238;-66
2023/10/14 10:12:52;;;;;;;6.13;1.13;;;15.60;99.90;;;-141.84;55.07;20657.34;5026856;28;20229;-67
2023/10/14 10:15:25;;;;;;;2.60;1.00;;;15.70;99.90;;;-141.84;55.78;20639.06;5020119;28;21247;-66
2023/10/14 10:18:02;;;;;;;4.43;1.40;;;15.80;99.90;;;-141.84;53.01;20651.25;5026451;28;20316;-67
2023/10/14 10:20:35;;;;;;;5.68;1.40;;;16.00;99.90;;;-141.84;50.06;20665.50;5007246;28;20214;-68
2023/10/14 10:23:07;;;;;;;5.60;1.30;;;16.00;99.90;;;-141.84;50.07;20645.16;5019736;28;20234;-65
2023/10/14 10:25:51;;;;;;;2.67;1.13;;;16.00;99.90;;;-141.84;50.45;20700.03;5024526;28;20226;-67
2023/10/14 10:28:39;;;;;;;5.38;1.42;;;16.00;99.90;;;-141.84;52.35;20671.59;5012112;28;20261;-67
2023/10/14 10:31:15;;;;;;;4.38;1.33;;;16.10;99.90;;;-141.84;49.79;20691.91;5019000;28;20253;-66